sensor_id;sensor_type;location;lat;lon;timestamp;P1;durP1;ratioP1;P2;durP2;ratioP2
20076;SDS011;12348;42.710;23.378;2023-11-22T00:02:15;21.70;;;11.07;;
20076;SDS011;12348;42.710;23.378;2023-11-22T00:04:41;18.17;;;11.90;;
20076;SDS011;12348;42.710;23.378;2023-11-22T00:07:08;28.13;;;14.00;;
20076;SDS011;12348;42.710;23.378;2023-11-22T00:09:35;22.63;;;11.23;;
20076;SDS011;12348;42.710;23.378;2023-11-22T00:12:04;27.87;;;15.67;;
20076;SDS011;12348;42.710;23.378;2023-11-22T00:14:31;25.80;;;11.67;;
20076;SDS011;12348;42.710;23.378;2023-11-22T00:16:58;22.67;;;10.90;;
20076;SDS011;12348;42.710;23.378;2023-11-22T00:19:26;33.17;;;12.77;;
20076;SDS011;12348;42.710;23.378;2023-11-22T00:21:54;21.97;;;13.17;;
20076;SDS011;12348;42.710;23.378;2023-11-22T00:24:20;29.00;;;13.50;;
20076;SDS011;12348;42.710;23.378;2023-11-22T00:26:47;23.17;;;12.97;;
20076;SDS011;12348;42.710;23.378;2023-11-22T00:29:15;30.43;;;13.43;;
20076;SDS011;12348;42.710;23.378;2023-11-22T00:31:43;25.53;;;14.83;;
20076;SDS011;12348;42.710;23.378;2023-11-22T00:34:10;20.57;;;12.67;;
20076;SDS011;12348;42.710;23.378;2023-11-22T00:36:36;19.40;;;12.00;;
20076;SDS011;12348;42.710;23.378;2023-11-22T00:39:03;37.23;;;13.17;;
20076;SDS011;12348;42.710;23.378;2023-11-22T00:41:30;23.40;;;14.23;;
20076;SDS011;12348;42.710;23.378;2023-11-22T00:43:57;26.43;;;14.80;;
20076;SDS011;12348;42.710;23.378;2023-11-22T00:46:26;35.10;;;12.70;;
20076;SDS011;12348;42.710;23.378;2023-11-22T00:48:53;19.20;;;12.63;;
20076;SDS011;12348;42.710;23.378;2023-11-22T00:51:21;21.27;;;12.20;;
20076;SDS011;12348;42.710;23.378;2023-11-22T00:53:47;22.50;;;14.13;;
20076;SDS011;12348;42.710;23.378;2023-11-22T00:56:14;25.57;;;12.70;;
20076;SDS011;12348;42.710;23.378;2023-11-22T00:58:41;22.13;;;12.40;;
20076;SDS011;12348;42.710;23.378;2023-11-22T01:01:08;22.20;;;12.93;;
20076;SDS011;12348;42.710;23.378;2023-11-22T01:03:38;27.63;;;13.87;;
20076;SDS011;12348;42.710;23.378;2023-11-22T01:06:05;27.37;;;13.77;;
20076;SDS011;12348;42.710;23.378;2023-11-22T01:08:32;26.13;;;14.13;;
20076;SDS011;12348;42.710;23.378;2023-11-22T01:10:59;20.60;;;11.50;;
20076;SDS011;12348;42.710;23.378;2023-11-22T01:13:27;18.10;;;11.10;;
20076;SDS011;12348;42.710;23.378;2023-11-22T01:15:54;22.57;;;10.83;;
20076;SDS011;12348;42.710;23.378;2023-11-22T01:18:21;24.50;;;11.43;;
20076;SDS011;12348;42.710;23.378;2023-11-22T01:20:50;19.23;;;9.70;;
20076;SDS011;12348;42.710;23.378;2023-11-22T01:23:16;30.77;;;14.63;;
20076;SDS011;12348;42.710;23.378;2023-11-22T01:25:43;12.90;;;7.00;;
20076;SDS011;12348;42.710;23.378;2023-11-22T01:28:10;11.80;;;8.77;;
20076;SDS011;12348;42.710;23.378;2023-11-22T01:30:37;14.30;;;9.63;;
20076;SDS011;12348;42.710;23.378;2023-11-22T01:33:04;24.93;;;10.93;;
20076;SDS011;12348;42.710;23.378;2023-11-22T01:35:30;23.27;;;11.27;;
20076;SDS011;12348;42.710;23.378;2023-11-22T01:37:59;14.70;;;9.30;;
20076;SDS011;12348;42.710;23.378;2023-11-22T01:40:29;18.70;;;9.63;;
20076;SDS011;12348;42.710;23.378;2023-11-22T01:42:56;18.53;;;8.90;;
20076;SDS011;12348;42.710;23.378;2023-11-22T01:45:23;20.73;;;9.60;;
20076;SDS011;12348;42.710;23.378;2023-11-22T01:47:50;18.63;;;11.50;;
20076;SDS011;12348;42.710;23.378;2023-11-22T01:50:17;30.40;;;13.67;;
20076;SDS011;12348;42.710;23.378;2023-11-22T01:52:45;20.53;;;11.13;;
20076;SDS011;12348;42.710;23.378;2023-11-22T01:55:13;16.23;;;9.80;;
20076;SDS011;12348;42.710;23.378;2023-11-22T01:57:44;18.33;;;9.20;;
20076;SDS011;12348;42.710;23.378;2023-11-22T02:00:11;21.43;;;10.40;;
20076;SDS011;12348;42.710;23.378;2023-11-22T02:02:40;18.90;;;8.37;;
20076;SDS011;12348;42.710;23.378;2023-11-22T02:05:07;18.23;;;8.00;;
20076;SDS011;12348;42.710;23.378;2023-11-22T02:07:37;29.90;;;9.73;;
20076;SDS011;12348;42.710;23.378;2023-11-22T02:10:05;13.63;;;9.77;;
20076;SDS011;12348;42.710;23.378;2023-11-22T02:12:34;13.23;;;8.10;;
20076;SDS011;12348;42.710;23.378;2023-11-22T02:15:01;15.60;;;8.37;;
20076;SDS011;12348;42.710;23.378;2023-11-22T02:17:28;14.00;;;7.33;;
20076;SDS011;12348;42.710;23.378;2023-11-22T02:19:55;8.43;;;6.57;;
20076;SDS011;12348;42.710;23.378;2023-11-22T02:22:22;10.93;;;7.53;;
20076;SDS011;12348;42.710;23.378;2023-11-22T02:24:50;15.83;;;8.90;;
20076;SDS011;12348;42.710;23.378;2023-11-22T02:27:17;18.23;;;9.43;;
20076;SDS011;12348;42.710;23.378;2023-11-22T02:29:44;16.33;;;8.07;;
20076;SDS011;12348;42.710;23.378;2023-11-22T02:32:11;16.50;;;7.53;;
20076;SDS011;12348;42.710;23.378;2023-11-22T02:34:38;15.07;;;8.60;;
20076;SDS011;12348;42.710;23.378;2023-11-22T02:37:05;14.03;;;8.40;;
20076;SDS011;12348;42.710;23.378;2023-11-22T02:39:35;16.20;;;10.43;;
20076;SDS011;12348;42.710;23.378;2023-11-22T02:42:14;12.27;;;8.17;;
20076;SDS011;12348;42.710;23.378;2023-11-22T02:44:40;19.27;;;6.90;;
20076;SDS011;12348;42.710;23.378;2023-11-22T02:47:07;16.83;;;9.40;;
20076;SDS011;12348;42.710;23.378;2023-11-22T02:49:35;15.30;;;8.30;;
20076;SDS011;12348;42.710;23.378;2023-11-22T02:52:02;11.53;;;6.67;;
20076;SDS011;12348;42.710;23.378;2023-11-22T02:54:29;18.03;;;10.53;;
20076;SDS011;12348;42.710;23.378;2023-11-22T02:56:56;8.13;;;6.07;;
20076;SDS011;12348;42.710;23.378;2023-11-22T02:59:25;16.80;;;8.87;;
20076;SDS011;12348;42.710;23.378;2023-11-22T03:01:51;9.10;;;5.00;;
20076;SDS011;12348;42.710;23.378;2023-11-22T03:04:18;7.13;;;6.17;;
20076;SDS011;12348;42.710;23.378;2023-11-22T03:06:45;12.33;;;8.03;;
20076;SDS011;12348;42.710;23.378;2023-11-22T03:09:11;12.70;;;7.03;;
20076;SDS011;12348;42.710;23.378;2023-11-22T03:11:38;9.93;;;6.03;;
20076;SDS011;12348;42.710;23.378;2023-11-22T03:14:06;11.57;;;6.93;;
20076;SDS011;12348;42.710;23.378;2023-11-22T03:16:37;12.60;;;6.33;;
20076;SDS011;12348;42.710;23.378;2023-11-22T03:19:05;8.57;;;5.87;;
20076;SDS011;12348;42.710;23.378;2023-11-22T03:21:32;10.40;;;6.97;;
20076;SDS011;12348;42.710;23.378;2023-11-22T03:24:02;20.67;;;7.93;;
20076;SDS011;12348;42.710;23.378;2023-11-22T03:26:29;14.73;;;7.53;;
20076;SDS011;12348;42.710;23.378;2023-11-22T03:28:56;12.53;;;7.23;;
20076;SDS011;12348;42.710;23.378;2023-11-22T03:31:23;16.00;;;6.77;;
20076;SDS011;12348;42.710;23.378;2023-11-22T03:33:51;10.23;;;5.90;;
20076;SDS011;12348;42.710;23.378;2023-11-22T03:36:19;8.40;;;7.07;;
20076;SDS011;12348;42.710;23.378;2023-11-22T03:38:47;17.00;;;7.70;;
20076;SDS011;12348;42.710;23.378;2023-11-22T03:41:14;19.20;;;6.83;;
20076;SDS011;12348;42.710;23.378;2023-11-22T03:43:42;14.67;;;6.30;;
20076;SDS011;12348;42.710;23.378;2023-11-22T03:46:09;11.80;;;6.87;;
20076;SDS011;12348;42.710;23.378;2023-11-22T03:48:36;12.10;;;6.53;;
20076;SDS011;12348;42.710;23.378;2023-11-22T03:51:04;10.37;;;7.30;;
20076;SDS011;12348;42.710;23.378;2023-11-22T03:53:31;11.33;;;6.37;;
20076;SDS011;12348;42.710;23.378;2023-11-22T03:55:57;11.07;;;6.10;;
20076;SDS011;12348;42.710;23.378;2023-11-22T03:58:25;13.70;;;6.50;;
20076;SDS011;12348;42.710;23.378;2023-11-22T04:00:51;10.23;;;6.93;;
20076;SDS011;12348;42.710;23.378;2023-11-22T04:03:19;12.23;;;7.00;;
20076;SDS011;12348;42.710;23.378;2023-11-22T04:05:46;9.27;;;6.13;;
20076;SDS011;12348;42.710;23.378;2023-11-22T04:08:14;10.30;;;5.80;;
20076;SDS011;12348;42.710;23.378;2023-11-22T04:10:41;8.90;;;6.50;;
20076;SDS011;12348;42.710;23.378;2023-11-22T04:13:08;10.37;;;5.30;;
20076;SDS011;12348;42.710;23.378;2023-11-22T04:15:35;9.97;;;7.27;;
20076;SDS011;12348;42.710;23.378;2023-11-22T04:18:01;7.40;;;5.80;;
20076;SDS011;12348;42.710;23.378;2023-11-22T04:20:29;12.43;;;8.00;;
20076;SDS011;12348;42.710;23.378;2023-11-22T04:22:55;9.77;;;5.53;;
20076;SDS011;12348;42.710;23.378;2023-11-22T04:25:24;7.40;;;4.47;;
20076;SDS011;12348;42.710;23.378;2023-11-22T04:27:50;4.07;;;2.63;;
20076;SDS011;12348;42.710;23.378;2023-11-22T04:30:17;7.20;;;4.20;;
20076;SDS011;12348;42.710;23.378;2023-11-22T04:32:44;4.07;;;3.27;;
20076;SDS011;12348;42.710;23.378;2023-11-22T04:35:11;6.87;;;4.20;;
20076;SDS011;12348;42.710;23.378;2023-11-22T04:37:38;9.10;;;4.30;;
20076;SDS011;12348;42.710;23.378;2023-11-22T04:40:05;5.37;;;3.37;;
20076;SDS011;12348;42.710;23.378;2023-11-22T04:42:35;5.30;;;4.20;;
20076;SDS011;12348;42.710;23.378;2023-11-22T04:45:03;9.73;;;7.27;;
20076;SDS011;12348;42.710;23.378;2023-11-22T04:47:30;7.37;;;6.07;;
20076;SDS011;12348;42.710;23.378;2023-11-22T04:49:57;8.43;;;4.83;;
20076;SDS011;12348;42.710;23.378;2023-11-22T04:52:25;7.63;;;5.10;;
20076;SDS011;12348;42.710;23.378;2023-11-22T04:54:51;9.87;;;5.83;;
20076;SDS011;12348;42.710;23.378;2023-11-22T04:57:18;10.30;;;6.17;;
20076;SDS011;12348;42.710;23.378;2023-11-22T04:59:47;11.17;;;7.23;;
20076;SDS011;12348;42.710;23.378;2023-11-22T05:02:14;10.27;;;7.00;;
20076;SDS011;12348;42.710;23.378;2023-11-22T05:04:41;10.57;;;5.43;;
20076;SDS011;12348;42.710;23.378;2023-11-22T05:07:08;16.87;;;7.60;;
20076;SDS011;12348;42.710;23.378;2023-11-22T05:09:35;18.20;;;7.87;;
20076;SDS011;12348;42.710;23.378;2023-11-22T05:12:02;9.23;;;5.70;;
20076;SDS011;12348;42.710;23.378;2023-11-22T05:14:29;10.90;;;7.37;;
20076;SDS011;12348;42.710;23.378;2023-11-22T05:16:57;10.10;;;4.77;;
20076;SDS011;12348;42.710;23.378;2023-11-22T05:19:24;10.87;;;6.63;;
20076;SDS011;12348;42.710;23.378;2023-11-22T05:21:51;11.10;;;6.73;;
20076;SDS011;12348;42.710;23.378;2023-11-22T05:24:17;10.83;;;5.60;;
20076;SDS011;12348;42.710;23.378;2023-11-22T05:26:44;12.17;;;6.37;;
20076;SDS011;12348;42.710;23.378;2023-11-22T05:29:11;9.60;;;5.03;;
20076;SDS011;12348;42.710;23.378;2023-11-22T05:31:38;8.30;;;4.77;;
20076;SDS011;12348;42.710;23.378;2023-11-22T05:34:06;6.90;;;4.97;;
20076;SDS011;12348;42.710;23.378;2023-11-22T05:36:33;12.10;;;5.63;;
20076;SDS011;12348;42.710;23.378;2023-11-22T05:39:00;10.70;;;6.63;;
20076;SDS011;12348;42.710;23.378;2023-11-22T05:41:29;8.53;;;6.53;;
20076;SDS011;12348;42.710;23.378;2023-11-22T05:43:56;10.83;;;7.80;;
20076;SDS011;12348;42.710;23.378;2023-11-22T05:46:23;8.07;;;5.67;;
20076;SDS011;12348;42.710;23.378;2023-11-22T05:48:50;9.23;;;7.57;;
20076;SDS011;12348;42.710;23.378;2023-11-22T05:51:19;12.43;;;6.60;;
20076;SDS011;12348;42.710;23.378;2023-11-22T05:53:46;10.97;;;7.47;;
20076;SDS011;12348;42.710;23.378;2023-11-22T05:56:13;14.47;;;6.57;;
20076;SDS011;12348;42.710;23.378;2023-11-22T05:58:40;16.80;;;9.43;;
20076;SDS011;12348;42.710;23.378;2023-11-22T06:01:07;13.40;;;8.67;;
20076;SDS011;12348;42.710;23.378;2023-11-22T06:03:34;20.93;;;8.50;;
20076;SDS011;12348;42.710;23.378;2023-11-22T06:06:03;10.47;;;6.53;;
20076;SDS011;12348;42.710;23.378;2023-11-22T06:08:31;10.13;;;6.83;;
20076;SDS011;12348;42.710;23.378;2023-11-22T06:10:58;9.80;;;6.80;;
20076;SDS011;12348;42.710;23.378;2023-11-22T06:13:25;10.00;;;7.93;;
20076;SDS011;12348;42.710;23.378;2023-11-22T06:15:52;13.63;;;8.17;;
20076;SDS011;12348;42.710;23.378;2023-11-22T06:18:19;10.57;;;5.90;;
20076;SDS011;12348;42.710;23.378;2023-11-22T06:20:46;9.63;;;7.10;;
20076;SDS011;12348;42.710;23.378;2023-11-22T06:23:13;8.53;;;6.13;;
20076;SDS011;12348;42.710;23.378;2023-11-22T06:25:42;11.70;;;7.00;;
20076;SDS011;12348;42.710;23.378;2023-11-22T06:28:09;13.70;;;7.30;;
20076;SDS011;12348;42.710;23.378;2023-11-22T06:30:35;16.33;;;7.37;;
20076;SDS011;12348;42.710;23.378;2023-11-22T06:33:02;14.70;;;9.40;;
20076;SDS011;12348;42.710;23.378;2023-11-22T06:35:29;16.70;;;7.57;;
20076;SDS011;12348;42.710;23.378;2023-11-22T06:37:56;14.57;;;8.80;;
20076;SDS011;12348;42.710;23.378;2023-11-22T06:40:23;15.37;;;8.30;;
20076;SDS011;12348;42.710;23.378;2023-11-22T06:42:52;10.97;;;6.57;;
20076;SDS011;12348;42.710;23.378;2023-11-22T06:45:19;17.33;;;7.80;;
20076;SDS011;12348;42.710;23.378;2023-11-22T06:47:46;16.20;;;8.87;;
20076;SDS011;12348;42.710;23.378;2023-11-22T06:50:15;13.93;;;8.87;;
20076;SDS011;12348;42.710;23.378;2023-11-22T06:52:42;13.10;;;6.20;;
20076;SDS011;12348;42.710;23.378;2023-11-22T06:55:09;17.00;;;9.10;;
20076;SDS011;12348;42.710;23.378;2023-11-22T06:57:36;17.90;;;7.50;;
20076;SDS011;12348;42.710;23.378;2023-11-22T07:00:05;9.53;;;6.43;;
20076;SDS011;12348;42.710;23.378;2023-11-22T07:02:34;14.33;;;7.00;;
20076;SDS011;12348;42.710;23.378;2023-11-22T07:05:01;13.63;;;7.53;;
20076;SDS011;12348;42.710;23.378;2023-11-22T07:07:34;19.60;;;10.17;;
20076;SDS011;12348;42.710;23.378;2023-11-22T07:10:03;21.53;;;8.77;;
20076;SDS011;12348;42.710;23.378;2023-11-22T07:12:31;11.80;;;8.40;;
20076;SDS011;12348;42.710;23.378;2023-11-22T07:14:59;11.73;;;7.60;;
20076;SDS011;12348;42.710;23.378;2023-11-22T07:17:27;24.67;;;11.27;;
20076;SDS011;12348;42.710;23.378;2023-11-22T07:19:54;16.77;;;7.20;;
20076;SDS011;12348;42.710;23.378;2023-11-22T07:22:22;28.53;;;8.80;;
20076;SDS011;12348;42.710;23.378;2023-11-22T07:24:49;20.73;;;9.73;;
20076;SDS011;12348;42.710;23.378;2023-11-22T07:27:16;26.60;;;10.87;;
20076;SDS011;12348;42.710;23.378;2023-11-22T07:29:44;12.93;;;9.27;;
20076;SDS011;12348;42.710;23.378;2023-11-22T07:32:12;22.40;;;9.27;;
20076;SDS011;12348;42.710;23.378;2023-11-22T07:34:40;13.93;;;7.40;;
20076;SDS011;12348;42.710;23.378;2023-11-22T07:37:07;12.80;;;7.67;;
20076;SDS011;12348;42.710;23.378;2023-11-22T07:39:34;16.63;;;7.87;;
20076;SDS011;12348;42.710;23.378;2023-11-22T07:42:01;11.80;;;7.30;;
20076;SDS011;12348;42.710;23.378;2023-11-22T07:44:28;25.30;;;9.27;;
20076;SDS011;12348;42.710;23.378;2023-11-22T07:46:57;18.10;;;10.53;;
20076;SDS011;12348;42.710;23.378;2023-11-22T07:49:25;23.87;;;15.43;;
20076;SDS011;12348;42.710;23.378;2023-11-22T07:51:54;23.80;;;17.40;;
20076;SDS011;12348;42.710;23.378;2023-11-22T07:54:21;28.43;;;17.63;;
20076;SDS011;12348;42.710;23.378;2023-11-22T07:56:48;33.20;;;19.90;;
20076;SDS011;12348;42.710;23.378;2023-11-22T07:59:15;32.37;;;16.97;;
20076;SDS011;12348;42.710;23.378;2023-11-22T08:01:42;21.70;;;16.10;;
20076;SDS011;12348;42.710;23.378;2023-11-22T08:04:09;16.27;;;9.90;;
20076;SDS011;12348;42.710;23.378;2023-11-22T08:06:37;17.67;;;10.77;;
20076;SDS011;12348;42.710;23.378;2023-11-22T08:09:05;12.20;;;8.10;;
20076;SDS011;12348;42.710;23.378;2023-11-22T08:11:34;17.80;;;8.17;;
20076;SDS011;12348;42.710;23.378;2023-11-22T08:14:01;11.93;;;7.63;;
20076;SDS011;12348;42.710;23.378;2023-11-22T08:16:28;19.10;;;8.33;;
20076;SDS011;12348;42.710;23.378;2023-11-22T08:18:55;16.80;;;7.53;;
20076;SDS011;12348;42.710;23.378;2023-11-22T08:21:21;16.33;;;7.70;;
20076;SDS011;12348;42.710;23.378;2023-11-22T08:23:48;20.97;;;7.30;;
20076;SDS011;12348;42.710;23.378;2023-11-22T08:26:17;10.73;;;6.87;;
20076;SDS011;12348;42.710;23.378;2023-11-22T08:28:43;9.20;;;7.10;;
20076;SDS011;12348;42.710;23.378;2023-11-22T08:31:10;14.40;;;6.60;;
20076;SDS011;12348;42.710;23.378;2023-11-22T08:33:37;14.53;;;6.23;;
20076;SDS011;12348;42.710;23.378;2023-11-22T08:36:10;11.57;;;7.00;;
20076;SDS011;12348;42.710;23.378;2023-11-22T08:38:37;9.57;;;6.60;;
20076;SDS011;12348;42.710;23.378;2023-11-22T08:41:06;7.83;;;5.33;;
20076;SDS011;12348;42.710;23.378;2023-11-22T08:43:36;6.87;;;5.37;;
20076;SDS011;12348;42.710;23.378;2023-11-22T08:46:03;9.73;;;5.90;;
20076;SDS011;12348;42.710;23.378;2023-11-22T08:48:31;10.77;;;6.00;;
20076;SDS011;12348;42.710;23.378;2023-11-22T08:51:02;9.53;;;5.87;;
20076;SDS011;12348;42.710;23.378;2023-11-22T08:53:34;12.60;;;6.73;;
20076;SDS011;12348;42.710;23.378;2023-11-22T08:56:02;6.97;;;5.20;;
20076;SDS011;12348;42.710;23.378;2023-11-22T08:58:31;6.57;;;4.47;;
20076;SDS011;12348;42.710;23.378;2023-11-22T09:01:05;6.17;;;5.33;;
20076;SDS011;12348;42.710;23.378;2023-11-22T09:03:34;11.17;;;5.50;;
20076;SDS011;12348;42.710;23.378;2023-11-22T09:06:02;10.20;;;4.43;;
20076;SDS011;12348;42.710;23.378;2023-11-22T09:08:32;10.83;;;5.20;;
20076;SDS011;12348;42.710;23.378;2023-11-22T09:11:00;5.80;;;4.13;;
20076;SDS011;12348;42.710;23.378;2023-11-22T09:13:31;6.10;;;4.20;;
20076;SDS011;12348;42.710;23.378;2023-11-22T09:15:58;6.87;;;4.20;;
20076;SDS011;12348;42.710;23.378;2023-11-22T09:18:26;7.23;;;4.30;;
20076;SDS011;12348;42.710;23.378;2023-11-22T09:20:53;11.70;;;7.60;;
20076;SDS011;12348;42.710;23.378;2023-11-22T09:23:20;11.57;;;6.27;;
20076;SDS011;12348;42.710;23.378;2023-11-22T09:25:46;5.70;;;4.67;;
20076;SDS011;12348;42.710;23.378;2023-11-22T09:28:14;18.37;;;8.07;;
20076;SDS011;12348;42.710;23.378;2023-11-22T09:30:41;14.20;;;7.93;;
20076;SDS011;12348;42.710;23.378;2023-11-22T09:33:09;9.07;;;6.37;;
20076;SDS011;12348;42.710;23.378;2023-11-22T09:35:39;8.00;;;5.33;;
20076;SDS011;12348;42.710;23.378;2023-11-22T09:38:06;7.37;;;4.00;;
20076;SDS011;12348;42.710;23.378;2023-11-22T09:40:36;7.17;;;5.17;;
20076;SDS011;12348;42.710;23.378;2023-11-22T09:43:07;11.83;;;5.43;;
20076;SDS011;12348;42.710;23.378;2023-11-22T09:45:34;11.80;;;6.10;;
20076;SDS011;12348;42.710;23.378;2023-11-22T09:48:03;11.03;;;6.23;;
20076;SDS011;12348;42.710;23.378;2023-11-22T09:50:47;10.43;;;5.10;;
20076;SDS011;12348;42.710;23.378;2023-11-22T09:53:22;13.40;;;7.90;;
20076;SDS011;12348;42.710;23.378;2023-11-22T09:55:57;7.63;;;5.03;;
20076;SDS011;12348;42.710;23.378;2023-11-22T09:58:24;10.00;;;6.53;;
20076;SDS011;12348;42.710;23.378;2023-11-22T10:00:56;11.73;;;6.73;;
20076;SDS011;12348;42.710;23.378;2023-11-22T10:03:23;11.90;;;7.50;;
20076;SDS011;12348;42.710;23.378;2023-11-22T10:05:54;18.97;;;10.33;;
20076;SDS011;12348;42.710;23.378;2023-11-22T10:08:24;14.70;;;8.23;;
20076;SDS011;12348;42.710;23.378;2023-11-22T10:10:52;16.00;;;7.80;;
20076;SDS011;12348;42.710;23.378;2023-11-22T10:13:20;11.93;;;7.00;;
20076;SDS011;12348;42.710;23.378;2023-11-22T10:15:48;10.43;;;6.43;;
20076;SDS011;12348;42.710;23.378;2023-11-22T10:18:15;11.33;;;6.87;;
20076;SDS011;12348;42.710;23.378;2023-11-22T10:20:44;11.57;;;7.37;;
20076;SDS011;12348;42.710;23.378;2023-11-22T10:23:16;11.60;;;7.07;;
20076;SDS011;12348;42.710;23.378;2023-11-22T10:25:44;14.93;;;7.47;;
20076;SDS011;12348;42.710;23.378;2023-11-22T10:28:12;13.60;;;7.50;;
20076;SDS011;12348;42.710;23.378;2023-11-22T10:30:39;15.40;;;6.70;;
20076;SDS011;12348;42.710;23.378;2023-11-22T10:33:07;10.97;;;6.67;;
20076;SDS011;12348;42.710;23.378;2023-11-22T10:35:38;15.10;;;7.13;;
20076;SDS011;12348;42.710;23.378;2023-11-22T10:38:07;10.53;;;5.73;;
20076;SDS011;12348;42.710;23.378;2023-11-22T10:40:37;13.97;;;6.83;;
20076;SDS011;12348;42.710;23.378;2023-11-22T10:43:04;13.40;;;7.03;;
20076;SDS011;12348;42.710;23.378;2023-11-22T10:45:34;13.13;;;8.23;;
20076;SDS011;12348;42.710;23.378;2023-11-22T10:48:02;14.80;;;9.10;;
20076;SDS011;12348;42.710;23.378;2023-11-22T10:50:30;14.30;;;7.87;;
20076;SDS011;12348;42.710;23.378;2023-11-22T10:52:57;14.30;;;8.20;;
20076;SDS011;12348;42.710;23.378;2023-11-22T10:55:26;15.87;;;8.43;;
20076;SDS011;12348;42.710;23.378;2023-11-22T10:58:03;17.83;;;9.63;;
20076;SDS011;12348;42.710;23.378;2023-11-22T11:00:31;18.50;;;8.67;;
20076;SDS011;12348;42.710;23.378;2023-11-22T11:02:59;16.57;;;8.43;;
20076;SDS011;12348;42.710;23.378;2023-11-22T11:05:30;18.67;;;8.60;;
20076;SDS011;12348;42.710;23.378;2023-11-22T11:08:00;17.03;;;9.00;;
20076;SDS011;12348;42.710;23.378;2023-11-22T11:10:31;15.57;;;6.97;;
20076;SDS011;12348;42.710;23.378;2023-11-22T11:13:00;12.93;;;6.57;;
20076;SDS011;12348;42.710;23.378;2023-11-22T11:15:27;15.43;;;8.63;;
20076;SDS011;12348;42.710;23.378;2023-11-22T11:17:54;40.87;;;18.47;;
20076;SDS011;12348;42.710;23.378;2023-11-22T11:20:22;19.67;;;9.57;;
20076;SDS011;12348;42.710;23.378;2023-11-22T11:22:49;24.13;;;9.47;;
20076;SDS011;12348;42.710;23.378;2023-11-22T11:25:17;18.90;;;8.97;;
20076;SDS011;12348;42.710;23.378;2023-11-22T11:27:45;15.27;;;8.43;;
20076;SDS011;12348;42.710;23.378;2023-11-22T11:33:11;21.97;;;11.30;;
20076;SDS011;12348;42.710;23.378;2023-11-22T11:35:42;27.87;;;12.30;;
20076;SDS011;12348;42.710;23.378;2023-11-22T11:38:12;31.87;;;15.03;;
20076;SDS011;12348;42.710;23.378;2023-11-22T11:40:40;112.70;;;37.03;;
20076;SDS011;12348;42.710;23.378;2023-11-22T11:43:07;44.73;;;20.30;;
20076;SDS011;12348;42.710;23.378;2023-11-22T11:45:37;32.20;;;16.93;;
20076;SDS011;12348;42.710;23.378;2023-11-22T11:48:13;13.07;;;8.50;;
20076;SDS011;12348;42.710;23.378;2023-11-22T11:50:41;24.00;;;8.50;;
20076;SDS011;12348;42.710;23.378;2023-11-22T11:53:08;9.00;;;5.40;;
20076;SDS011;12348;42.710;23.378;2023-11-22T11:55:35;12.80;;;7.47;;
20076;SDS011;12348;42.710;23.378;2023-11-22T11:58:04;11.47;;;6.40;;
20076;SDS011;12348;42.710;23.378;2023-11-22T12:00:34;12.10;;;7.77;;
20076;SDS011;12348;42.710;23.378;2023-11-22T12:03:05;15.03;;;6.13;;
20076;SDS011;12348;42.710;23.378;2023-11-22T12:05:34;16.10;;;6.97;;
20076;SDS011;12348;42.710;23.378;2023-11-22T12:08:00;14.50;;;7.60;;
20076;SDS011;12348;42.710;23.378;2023-11-22T12:10:27;14.10;;;6.90;;
20076;SDS011;12348;42.710;23.378;2023-11-22T12:12:55;20.33;;;8.73;;
20076;SDS011;12348;42.710;23.378;2023-11-22T12:15:21;16.90;;;8.10;;
20076;SDS011;12348;42.710;23.378;2023-11-22T12:17:49;10.77;;;6.13;;
20076;SDS011;12348;42.710;23.378;2023-11-22T12:20:16;9.27;;;5.70;;
20076;SDS011;12348;42.710;23.378;2023-11-22T12:22:47;9.37;;;5.63;;
20076;SDS011;12348;42.710;23.378;2023-11-22T12:25:14;7.57;;;5.83;;
20076;SDS011;12348;42.710;23.378;2023-11-22T12:27:41;11.57;;;6.53;;
20076;SDS011;12348;42.710;23.378;2023-11-22T12:30:09;7.87;;;5.07;;
20076;SDS011;12348;42.710;23.378;2023-11-22T12:32:54;9.70;;;5.63;;
20076;SDS011;12348;42.710;23.378;2023-11-22T12:35:22;10.30;;;5.97;;
20076;SDS011;12348;42.710;23.378;2023-11-22T12:37:50;11.63;;;7.27;;
20076;SDS011;12348;42.710;23.378;2023-11-22T12:40:19;9.20;;;5.83;;
20076;SDS011;12348;42.710;23.378;2023-11-22T12:42:47;12.87;;;7.57;;
20076;SDS011;12348;42.710;23.378;2023-11-22T12:45:18;8.77;;;4.87;;
20076;SDS011;12348;42.710;23.378;2023-11-22T12:47:46;7.47;;;5.70;;
20076;SDS011;12348;42.710;23.378;2023-11-22T12:52:57;11.87;;;6.17;;
20076;SDS011;12348;42.710;23.378;2023-11-22T12:55:25;25.40;;;12.40;;
20076;SDS011;12348;42.710;23.378;2023-11-22T12:57:56;24.23;;;10.70;;
20076;SDS011;12348;42.710;23.378;2023-11-22T13:00:24;13.60;;;7.70;;
20076;SDS011;12348;42.710;23.378;2023-11-22T13:02:54;15.03;;;7.50;;
20076;SDS011;12348;42.710;23.378;2023-11-22T13:05:21;12.27;;;6.53;;
20076;SDS011;12348;42.710;23.378;2023-11-22T13:07:48;12.90;;;7.13;;
20076;SDS011;12348;42.710;23.378;2023-11-22T13:10:16;19.93;;;7.33;;
20076;SDS011;12348;42.710;23.378;2023-11-22T13:12:43;10.93;;;6.80;;
20076;SDS011;12348;42.710;23.378;2023-11-22T13:15:10;13.30;;;7.33;;
20076;SDS011;12348;42.710;23.378;2023-11-22T13:17:38;19.10;;;6.77;;
20076;SDS011;12348;42.710;23.378;2023-11-22T13:20:06;12.43;;;6.13;;
20076;SDS011;12348;42.710;23.378;2023-11-22T13:22:38;9.93;;;6.03;;
20076;SDS011;12348;42.710;23.378;2023-11-22T13:25:06;15.77;;;7.70;;
20076;SDS011;12348;42.710;23.378;2023-11-22T13:27:37;13.27;;;8.00;;
20076;SDS011;12348;42.710;23.378;2023-11-22T13:30:04;8.63;;;4.90;;
20076;SDS011;12348;42.710;23.378;2023-11-22T13:32:34;14.33;;;6.07;;
20076;SDS011;12348;42.710;23.378;2023-11-22T13:35:01;11.87;;;8.17;;
20076;SDS011;12348;42.710;23.378;2023-11-22T13:37:30;16.77;;;7.10;;
20076;SDS011;12348;42.710;23.378;2023-11-22T13:39:57;13.13;;;8.53;;
20076;SDS011;12348;42.710;23.378;2023-11-22T13:42:24;11.77;;;7.30;;
20076;SDS011;12348;42.710;23.378;2023-11-22T13:44:52;7.27;;;4.63;;
20076;SDS011;12348;42.710;23.378;2023-11-22T13:47:18;10.23;;;5.50;;
20076;SDS011;12348;42.710;23.378;2023-11-22T13:49:46;14.03;;;6.20;;
20076;SDS011;12348;42.710;23.378;2023-11-22T13:52:13;10.67;;;5.67;;
20076;SDS011;12348;42.710;23.378;2023-11-22T13:54:42;10.90;;;5.60;;
20076;SDS011;12348;42.710;23.378;2023-11-22T13:57:09;12.97;;;5.03;;
20076;SDS011;12348;42.710;23.378;2023-11-22T13:59:36;9.73;;;4.23;;
20076;SDS011;12348;42.710;23.378;2023-11-22T14:02:04;14.83;;;5.70;;
20076;SDS011;12348;42.710;23.378;2023-11-22T14:04:31;10.43;;;4.60;;
20076;SDS011;12348;42.710;23.378;2023-11-22T14:06:57;7.93;;;4.43;;
20076;SDS011;12348;42.710;23.378;2023-11-22T14:09:25;5.70;;;3.60;;
20076;SDS011;12348;42.710;23.378;2023-11-22T14:11:52;4.77;;;2.80;;
20076;SDS011;12348;42.710;23.378;2023-11-22T14:14:19;5.07;;;2.73;;
20076;SDS011;12348;42.710;23.378;2023-11-22T14:16:46;4.03;;;2.90;;
20076;SDS011;12348;42.710;23.378;2023-11-22T14:19:15;5.63;;;3.33;;
20076;SDS011;12348;42.710;23.378;2023-11-22T14:21:42;2.67;;;2.10;;
20076;SDS011;12348;42.710;23.378;2023-11-22T14:24:09;2.37;;;1.90;;
20076;SDS011;12348;42.710;23.378;2023-11-22T14:26:36;4.87;;;2.47;;
20076;SDS011;12348;42.710;23.378;2023-11-22T14:29:03;4.37;;;2.83;;
20076;SDS011;12348;42.710;23.378;2023-11-22T14:31:31;4.97;;;3.30;;